Time;durP1;ratioP1;P1;durP2;ratioP2;P2;SDS_P1;SDS_P2;PMS_P1;PMS_P2;Temp;Humidity;BMP_temperature;BMP_pressure;BME280_temperature;BME280_humidity;BME280_pressure;Samples;Min_cycle;Max_cycle;Signal;HPM_P1;HPM_P2
2021/03/14 00:00:11;;;;;;;3.85;1.92;;;;;;;7.90;61.08;98669.55;1777727;78;25809;-76
2021/03/14 00:02:38;;;;;;;3.50;1.70;;;;;;;7.82;61.42;98662.69;1818035;77;25761;-76
2021/03/14 00:05:06;;;;;;;3.55;1.77;;;;;;;7.77;61.74;98666.35;1819996;77;25811;-76
2021/03/14 00:07:33;;;;;;;3.20;1.98;;;;;;;7.73;61.98;98673.73;1819595;77;25772;-76
2021/03/14 00:09:59;;;;;;;2.72;1.80;;;;;;;7.70;62.10;98675.92;1794693;77;25661;-76
2021/03/14 00:12:26;;;;;;;4.53;2.25;;;;;;;7.66;62.43;98677.27;1783749;77;26154;-76
2021/03/14 00:14:52;;;;;;;3.77;1.95;;;;;;;7.62;62.50;98685.95;1789777;78;25574;-76
2021/03/14 00:17:19;;;;;;;4.22;2.20;;;;;;;7.56;62.74;98690.10;1780149;78;26349;-76
2021/03/14 00:19:45;;;;;;;6.70;2.02;;;;;;;7.52;63.20;98690.15;1788502;78;25873;-76
2021/03/14 00:22:11;;;;;;;4.12;2.67;;;;;;;7.48;63.39;98679.83;1741283;79;25863;-76
2021/03/14 00:24:38;;;;;;;5.53;2.20;;;;;;;7.44;63.67;98683.78;1818870;77;26219;-76
2021/03/14 00:27:05;;;;;;;4.45;2.02;;;;;;;7.40;64.02;98681.26;1819659;77;25711;-76
2021/03/14 00:29:31;;;;;;;4.22;2.35;;;;;;;7.36;64.34;98685.20;1793305;78;25799;-76
2021/03/14 00:31:58;;;;;;;5.28;2.60;;;;;;;7.33;64.48;98686.88;1827159;76;25615;-76
2021/03/14 00:34:25;;;;;;;5.10;2.22;;;;;;;7.29;64.71;98680.45;1833904;76;25982;-76
2021/03/14 00:36:51;;;;;;;3.77;2.02;;;;;;;7.26;64.72;98683.43;1830125;76;25349;-76
2021/03/14 00:39:17;;;;;;;4.78;2.22;;;;;;;7.23;65.05;98687.20;1830417;76;25644;-76
2021/03/14 00:41:44;;;;;;;7.47;1.98;;;;;;;7.22;64.99;98690.77;1800500;77;25720;-76
2021/03/14 00:44:10;;;;;;;4.50;2.02;;;;;;;7.22;64.98;98693.37;1823495;77;26300;-78
2021/03/14 00:46:37;;;;;;;4.90;1.77;;;;;;;7.20;65.33;98697.97;1808626;77;25756;-76
2021/03/14 00:49:03;;;;;;;4.28;2.22;;;;;;;7.15;65.62;98697.70;1764626;78;25706;-75
2021/03/14 00:51:30;;;;;;;4.22;1.67;;;;;;;7.11;65.40;98703.74;1826780;77;25906;-76
2021/03/14 00:53:58;;;;;;;4.62;2.22;;;;;;;7.06;65.82;98702.69;1834449;76;25755;-76
2021/03/14 00:56:25;;;;;;;6.08;2.85;;;;;;;7.02;65.83;98710.05;1826225;76;25828;-76
2021/03/14 00:58:52;;;;;;;3.27;2.10;;;;;;;6.99;65.90;98700.03;1828766;76;25471;-76
2021/03/14 01:01:18;;;;;;;5.10;2.47;;;;;;;6.95;66.20;98705.27;1828781;77;26328;-76
2021/03/14 01:03:45;;;;;;;4.75;2.45;;;;;;;6.92;66.38;98697.84;1826863;76;25829;-76
2021/03/14 01:06:11;;;;;;;4.83;2.02;;;;;;;6.91;66.39;98708.43;1829022;76;25717;-76
2021/03/14 01:08:38;;;;;;;4.35;2.58;;;;;;;6.88;66.67;98706.50;1825727;76;25878;-76
2021/03/14 01:11:05;;;;;;;4.62;2.35;;;;;;;6.87;66.84;98711.86;1828288;76;26116;-76
2021/03/14 01:13:42;;;;;;;4.42;2.50;;;;;;;6.85;67.06;98719.05;1756796;80;25343;-76
2021/03/14 01:16:10;;;;;;;5.42;2.12;;;;;;;6.84;66.98;98709.62;1712044;81;25812;-76
2021/03/14 01:18:36;;;;;;;6.45;2.27;;;;;;;6.82;67.26;98699.44;1736241;80;26600;-77
2021/03/14 01:21:03;;;;;;;5.22;2.40;;;;;;;6.83;67.42;98706.23;1694417;82;27510;-76
2021/03/14 01:23:29;;;;;;;4.20;1.90;;;;;;;6.84;67.35;98702.64;1721819;81;25816;-76
2021/03/14 01:25:55;;;;;;;3.85;2.20;;;;;;;6.80;67.45;98697.52;1697470;82;25849;-76
2021/03/14 01:28:22;;;;;;;4.45;2.30;;;;;;;6.76;67.88;98699.34;1698070;82;25748;-76
2021/03/14 01:30:48;;;;;;;4.60;2.33;;;;;;;6.72;67.75;98697.62;1723563;81;25718;-76
2021/03/14 01:33:15;;;;;;;3.87;2.08;;;;;;;6.71;67.89;98699.08;1724306;81;26310;-76
2021/03/14 01:35:41;;;;;;;5.30;2.20;;;;;;;6.67;68.37;98698.65;1725143;81;25671;-76
2021/03/14 01:38:08;;;;;;;4.30;2.33;;;;;;;6.63;68.23;98693.02;1722352;81;25769;-76
2021/03/14 01:40:34;;;;;;;6.60;2.83;;;;;;;6.62;68.35;98682.80;1687527;83;25849;-76
2021/03/14 01:43:00;;;;;;;4.47;2.47;;;;;;;6.58;68.29;98684.97;1722302;81;25796;-76
2021/03/14 01:45:27;;;;;;;4.10;2.50;;;;;;;6.57;68.30;98683.34;1720279;81;26027;-76
2021/03/14 01:47:54;;;;;;;6.53;2.35;;;;;;;6.52;68.15;98674.02;1720243;81;25499;-76
2021/03/14 01:50:24;;;;;;;4.55;2.40;;;;;;;6.50;68.42;98673.88;1723568;80;25938;-76
2021/03/14 01:52:52;;;;;;;5.72;2.33;;;;;;;6.44;68.72;98665.03;1772866;78;26432;-76
2021/03/14 01:55:21;;;;;;;4.97;2.52;;;;;;;6.43;68.43;98658.21;1782551;78;25225;-77
2021/03/14 01:57:48;;;;;;;5.12;2.37;;;;;;;6.41;68.44;98662.77;1773695;78;26593;-76
2021/03/14 02:00:18;;;;;;;4.95;2.22;;;;;;;6.40;68.40;98661.17;1778480;78;25799;-77
2021/03/14 02:02:46;;;;;;;4.78;2.25;;;;;;;6.40;68.59;98666.36;1794412;77;25903;-76
2021/03/14 02:05:17;;;;;;;4.72;2.20;;;;;;;6.38;68.48;98659.23;1778185;79;25763;-76
2021/03/14 02:07:47;;;;;;;3.95;2.42;;;;;;;6.34;68.55;98669.68;1719684;80;25550;-69
2021/03/14 02:10:14;;;;;;;;;;;;;;;6.28;68.56;98666.02;1703284;82;26421;-70
2021/03/14 02:13:15;;;;;;;3.77;2.30;;;;;;;6.26;68.59;98663.28;1748346;80;25894;-69
2021/03/14 02:15:50;;;;;;;4.83;2.30;;;;;;;6.21;68.66;98665.11;1782384;77;25807;-70
2021/03/14 02:18:18;;;;;;;4.40;2.17;;;;;;;6.14;68.85;98671.52;1825108;77;25686;-70
2021/03/14 02:20:46;;;;;;;6.97;2.92;;;;;;;6.12;68.91;98667.48;1790174;78;25725;-70
2021/03/14 02:23:54;;;;;;;6.53;2.87;;;;;;;6.10;68.93;98666.36;1820507;77;25711;-76
2021/03/14 02:26:28;;;;;;;6.83;2.87;;;;;;;6.09;68.96;98665.25;1822927;77;25763;-77
2021/03/14 02:28:56;;;;;;;5.03;2.20;;;;;;;6.06;68.95;98663.02;1815965;77;25610;-75
2021/03/14 02:31:25;;;;;;;8.30;2.00;;;;;;;6.05;68.84;98661.39;1816933;77;25808;-69
2021/03/14 02:34:09;;;;;;;5.22;2.75;;;;;;;6.03;68.89;98666.77;1820770;76;25470;-69
2021/03/14 02:36:38;;;;;;;4.58;2.20;;;;;;;6.00;68.98;98670.98;1814926;77;25835;-70
2021/03/14 02:39:09;;;;;;;4.85;2.72;;;;;;;5.96;69.08;98673.64;1816929;77;32365;-76
2021/03/14 02:41:35;;;;;;;;;;;;;;;5.94;68.84;98678.98;1823401;77;25788;-76
2021/03/14 02:44:03;;;;;;;4.62;2.27;;;;;;;5.92;68.81;98676.22;1820205;77;25695;-70
2021/03/14 02:46:30;;;;;;;6.37;2.62;;;;;;;5.90;68.92;98682.09;1794808;77;25816;-70
2021/03/14 02:48:58;;;;;;;4.20;2.30;;;;;;;5.89;68.90;98676.58;1787267;77;25688;-70
2021/03/14 02:51:26;;;;;;;6.33;3.10;;;;;;;5.91;68.78;98677.22;1818312;77;25255;-68
2021/03/14 02:53:52;;;;;;;6.83;3.45;;;;;;;5.91;68.80;98674.13;1816161;77;25628;-68
2021/03/14 02:56:21;;;;;;;7.47;3.58;;;;;;;5.90;68.72;98675.61;1794997;77;25362;-68
2021/03/14 02:58:49;;;;;;;5.80;3.05;;;;;;;5.87;68.78;98676.77;1814848;76;26277;-68
2021/03/14 03:01:17;;;;;;;7.97;2.87;;;;;;;5.85;68.77;98676.63;1832686;77;26636;-68
2021/03/14 03:03:44;;;;;;;6.03;2.60;;;;;;;5.79;68.98;98668.57;1816655;77;25649;-68
2021/03/14 03:06:11;;;;;;;6.45;2.77;;;;;;;5.74;68.94;98673.97;1819034;77;25907;-68
2021/03/14 03:08:39;;;;;;;6.03;3.25;;;;;;;5.75;68.95;98682.05;1818572;77;25668;-74
2021/03/14 03:11:15;;;;;;;4.50;2.67;;;;;;;5.73;69.02;98678.36;1819798;77;25751;-74
2021/03/14 03:13:42;;;;;;;8.10;3.00;;;;;;;5.71;69.11;98686.79;1819018;77;26493;-76
2021/03/14 03:16:15;;;;;;;6.47;3.70;;;;;;;5.68;69.07;98688.94;1791849;77;25746;-76
2021/03/14 03:18:44;;;;;;;5.58;2.45;;;;;;;5.68;69.03;98696.22;1819653;77;25537;-76
2021/03/14 03:21:11;;;;;;;5.40;2.37;;;;;;;5.68;69.05;98690.23;1820168;77;25702;-76
2021/03/14 03:23:38;;;;;;;3.30;2.20;;;;;;;5.70;69.03;98699.91;1819550;77;25702;-76
2021/03/14 03:26:05;;;;;;;6.70;2.50;;;;;;;5.68;69.09;98694.92;1771289;77;25643;-76
2021/03/14 03:28:34;;;;;;;4.70;1.95;;;;;;;5.68;69.15;98703.19;1821907;77;25697;-76
2021/03/14 03:31:01;;;;;;;5.17;2.50;;;;;;;5.66;69.16;98699.95;1834432;77;25699;-69
2021/03/14 03:33:28;;;;;;;5.45;2.40;;;;;;;5.63;69.13;98702.91;1782832;78;25729;-70
2021/03/14 03:35:54;;;;;;;5.70;2.87;;;;;;;5.60;69.14;98711.03;1806200;77;25301;-70
2021/03/14 03:38:22;;;;;;;4.97;2.35;;;;;;;5.57;69.34;98712.18;1792669;77;25638;-70
2021/03/14 03:40:48;;;;;;;5.83;2.50;;;;;;;5.54;69.31;98714.63;1773108;78;25868;-70
2021/03/14 03:43:21;;;;;;;6.55;2.60;;;;;;;5.51;69.32;98718.86;1781250;77;25408;-69
2021/03/14 03:45:53;;;;;;;6.12;2.30;;;;;;;5.50;69.57;98719.02;1751327;77;25674;-69
2021/03/14 03:48:41;;;;;;;3.95;2.30;;;;;;;5.50;69.37;98719.02;1797617;76;25442;-70
2021/03/14 03:51:09;;;;;;;4.33;2.45;;;;;;;5.51;69.35;98721.45;1835827;77;25712;-69
2021/03/14 03:53:38;;;;;;;6.47;2.55;;;;;;;5.49;69.40;98726.48;1774534;78;25703;-70
2021/03/14 03:56:06;;;;;;;4.30;2.55;;;;;;;5.48;69.40;98732.17;1793375;77;25568;-76
2021/03/14 03:58:34;;;;;;;4.03;2.37;;;;;;;5.47;69.43;98731.83;1821215;76;25720;-76
2021/03/14 04:01:02;;;;;;;6.03;2.72;;;;;;;5.47;69.53;98733.63;1799190;77;26072;-70
2021/03/14 04:03:34;;;;;;;4.47;2.52;;;;;;;5.44;69.49;98728.30;1822913;77;25842;-70
2021/03/14 04:06:01;;;;;;;4.85;2.62;;;;;;;5.43;69.46;98727.98;1774746;78;26267;-70
2021/03/14 04:08:30;;;;;;;6.85;2.40;;;;;;;5.44;69.48;98728.30;1779377;78;25642;-70
2021/03/14 04:10:57;;;;;;;6.37;2.50;;;;;;;5.41;69.44;98724.76;1793602;77;25648;-70
2021/03/14 04:13:25;;;;;;;6.35;2.77;;;;;;;5.38;69.53;98726.40;1781579;78;25830;-69
2021/03/14 04:15:51;;;;;;;5.90;2.30;;;;;;;5.37;69.71;98723.97;1818092;77;25875;-70
2021/03/14 04:18:20;;;;;;;4.55;2.47;;;;;;;5.38;69.63;98721.71;1816897;77;25810;-70
2021/03/14 04:20:48;;;;;;;3.35;2.33;;;;;;;5.42;69.56;98732.03;1788381;78;25320;-71
2021/03/14 04:23:21;;;;;;;5.97;2.33;;;;;;;5.42;69.47;98725.55;1822618;77;25750;-70
2021/03/14 04:25:54;;;;;;;4.65;2.35;;;;;;;5.45;69.42;98728.59;1821585;77;25341;-71
2021/03/14 04:28:27;;;;;;;7.92;3.30;;;;;;;5.46;69.41;98725.05;1806171;77;26527;-69
2021/03/14 04:30:54;;;;;;;7.87;2.85;;;;;;;5.47;69.36;98724.06;1808184;77;25280;-69
2021/03/14 04:33:22;;;;;;;6.10;2.50;;;;;;;5.47;69.26;98709.81;1783872;77;25914;-70
2021/03/14 04:35:50;;;;;;;7.05;2.80;;;;;;;5.49;69.25;98714.83;1795115;77;25629;-69
2021/03/14 04:38:18;;;;;;;7.00;3.08;;;;;;;5.46;69.25;98710.80;1786440;77;25910;-69
2021/03/14 04:40:46;;;;;;;4.30;2.80;;;;;;;5.43;69.21;98714.20;1791497;78;25840;-70
2021/03/14 04:43:14;;;;;;;8.93;3.65;;;;;;;5.42;69.20;98719.87;1796416;77;25709;-70
2021/03/14 04:45:41;;;;;;;4.97;2.77;;;;;;;5.43;69.21;98716.80;1816021;77;25774;-76
2021/03/14 04:48:08;;;;;;;4.25;2.27;;;;;;;5.43;69.18;98722.80;1822308;76;25633;-76
2021/03/14 04:50:34;;;;;;;5.28;2.42;;;;;;;5.40;69.19;98716.67;1833294;77;25709;-76
2021/03/14 04:53:02;;;;;;;4.22;2.67;;;;;;;5.39;69.16;98726.70;1781745;77;27930;-76
2021/03/14 04:55:34;;;;;;;5.53;2.72;;;;;;;5.39;69.15;98724.61;1801115;77;25301;-76
2021/03/14 04:58:02;;;;;;;5.50;3.05;;;;;;;5.38;69.14;98713.45;1797575;77;25855;-76
2021/03/14 05:00:29;;;;;;;4.12;2.47;;;;;;;5.37;69.11;98717.00;1800915;77;25636;-76
2021/03/14 05:02:58;;;;;;;6.45;2.65;;;;;;;5.37;69.09;98714.41;1817323;77;26355;-76
2021/03/14 05:05:25;;;;;;;4.37;2.85;;;;;;;5.36;69.08;98720.58;1801691;77;26222;-76
2021/03/14 05:07:52;;;;;;;6.42;2.92;;;;;;;5.37;69.10;98713.61;1802222;77;25824;-76
2021/03/14 05:10:23;;;;;;;4.37;2.67;;;;;;;5.34;69.04;98703.09;1790214;77;25723;-76
2021/03/14 05:12:51;;;;;;;6.10;2.87;;;;;;;5.33;69.05;98706.67;1820425;77;25751;-77
2021/03/14 05:15:20;;;;;;;6.85;4.62;;;;;;;5.32;69.02;98706.37;1821096;77;25858;-76
2021/03/14 05:17:48;;;;;;;7.62;2.67;;;;;;;5.31;69.04;98709.92;1822583;77;25658;-76
2021/03/14 05:20:19;;;;;;;4.70;2.70;;;;;;;5.32;69.08;98714.94;1818434;77;25708;-77
2021/03/14 05:22:48;;;;;;;5.75;2.60;;;;;;;5.33;69.05;98715.25;1818914;77;25743;-76
2021/03/14 05:25:17;;;;;;;6.20;3.00;;;;;;;5.37;69.00;98723.97;1820547;76;25672;-76
2021/03/14 05:27:50;;;;;;;4.78;2.58;;;;;;;5.37;68.98;98722.17;1818765;77;26049;-75
2021/03/14 05:30:27;;;;;;;6.17;2.98;;;;;;;5.39;68.95;98718.13;1813337;77;25766;-76
2021/03/14 05:32:56;;;;;;;5.95;2.98;;;;;;;5.41;68.92;98720.06;1819221;77;25659;-75
2021/03/14 05:35:27;;;;;;;6.17;3.10;;;;;;;5.40;68.94;98722.33;1816519;76;25598;-75
2021/03/14 05:37:55;;;;;;;5.83;3.10;;;;;;;5.39;68.94;98712.95;1818226;77;26208;-75
2021/03/14 05:40:24;;;;;;;4.85;2.95;;;;;;;5.38;68.96;98714.74;1819812;77;25733;-75
2021/03/14 05:42:52;;;;;;;7.35;3.08;;;;;;;5.37;68.98;98715.70;1818268;77;25807;-75
2021/03/14 05:45:20;;;;;;;5.60;2.85;;;;;;;5.37;69.05;98712.31;1817961;77;25347;-75
2021/03/14 05:47:47;;;;;;;5.50;2.67;;;;;;;5.37;69.03;98718.78;1818010;77;25276;-75
2021/03/14 05:50:18;;;;;;;6.83;2.80;;;;;;;5.35;69.10;98726.75;1812401;77;25571;-75
2021/03/14 05:52:44;;;;;;;6.12;3.10;;;;;;;5.31;69.16;98730.64;1820902;77;25660;-76
2021/03/14 05:55:18;;;;;;;5.80;2.52;;;;;;;5.29;69.19;98732.59;1809305;77;25765;-75
2021/03/14 05:57:47;;;;;;;4.75;2.37;;;;;;;5.31;69.28;98728.85;1817837;77;25924;-75
2021/03/14 06:00:24;;;;;;;5.42;2.85;;;;;;;5.34;69.28;98738.87;1817096;77;35323;-75
2021/03/14 06:02:45;;;;;;;5.60;2.80;;;;;;;5.41;69.30;98740.80;1815605;77;25789;-75
2021/03/14 06:05:14;;;;;;;6.78;3.08;;;;;;;5.43;69.21;98740.94;1793400;77;25270;-74
2021/03/14 06:07:40;;;;;;;6.58;3.25;;;;;;;5.45;69.18;98745.44;1783544;77;25748;-75
2021/03/14 06:10:08;;;;;;;7.05;2.95;;;;;;;5.50;69.27;98744.44;1808122;76;25973;-75
2021/03/14 06:12:35;;;;;;;5.83;2.80;;;;;;;5.53;69.22;98737.61;1774706;77;25802;-75
2021/03/14 06:15:02;;;;;;;8.45;3.20;;;;;;;5.59;69.24;98744.38;1788772;77;25807;-75
2021/03/14 06:17:29;;;;;;;6.83;3.08;;;;;;;5.60;69.15;98735.65;1793542;77;25264;-74
2021/03/14 06:19:56;;;;;;;4.95;2.87;;;;;;;5.58;69.14;98724.64;1809635;77;25818;-75
2021/03/14 06:22:25;;;;;;;5.25;3.22;;;;;;;5.55;69.18;98733.07;1824598;77;25615;-75
2021/03/14 06:24:53;;;;;;;5.30;2.87;;;;;;;5.56;69.32;98732.58;1795904;77;25636;-75
2021/03/14 06:27:57;;;;;;;6.40;3.20;;;;;;;5.60;69.33;98726.58;1816049;77;25810;-75
2021/03/14 06:30:11;;;;;;;;;;;;;;;5.64;69.24;98726.04;1773776;77;25753;-75
2021/03/14 06:32:37;;;;;;;4.67;2.62;;;;;;;5.64;69.20;98726.04;1778956;77;25808;-75
2021/03/14 06:35:19;;;;;;;5.70;2.92;;;;;;;5.66;69.27;98728.47;1813119;77;25662;-75
2021/03/14 06:37:44;;;;;;;9.33;3.00;;;;;;;5.68;69.35;98730.41;1814982;77;25920;-75
2021/03/14 06:40:15;;;;;;;7.25;3.62;;;;;;;5.70;69.33;98737.03;1774069;78;26280;-75
2021/03/14 06:42:45;;;;;;;7.15;3.30;;;;;;;5.75;69.33;98748.16;1812323;77;25633;-75
2021/03/14 06:45:15;;;;;;;6.05;2.85;;;;;;;5.83;69.39;98738.22;1797232;77;25821;-75
2021/03/14 06:47:50;;;;;;;4.70;2.90;;;;;;;5.92;69.30;98744.47;1819068;77;25800;-75
2021/03/14 06:50:34;;;;;;;5.70;2.90;;;;;;;6.00;69.15;98749.61;1820192;77;25718;-75
2021/03/14 06:53:22;;;;;;;6.22;3.22;;;;;;;6.04;68.72;98753.16;1810300;77;25312;-75
2021/03/14 06:55:55;;;;;;;9.35;3.20;;;;;;;6.08;68.70;98753.10;1808478;77;26359;-75
2021/03/14 06:58:32;;;;;;;5.78;2.87;;;;;;;6.11;68.53;98767.02;1817217;77;25670;-75
2021/03/14 07:01:20;;;;;;;5.83;2.95;;;;;;;6.10;68.39;98767.51;1758617;78;58063;-89
2021/03/14 07:03:54;;;;;;;5.70;3.02;;;;;;;6.06;68.18;98755.89;1759055;78;25325;-90
2021/03/14 07:06:29;;;;;;;5.15;2.60;;;;;;;6.06;68.42;98753.30;1751394;79;25369;-89
2021/03/14 07:09:00;;;;;;;5.97;3.20;;;;;;;6.06;68.03;98754.59;1759133;79;25347;-89
2021/03/14 07:11:45;;;;;;;7.50;3.40;;;;;;;6.10;68.29;98746.76;1762698;78;25889;-89
2021/03/14 07:14:17;;;;;;;5.65;2.87;;;;;;;6.15;68.23;98737.16;1756172;79;25368;-91
2021/03/14 07:16:58;;;;;;;7.17;3.60;;;;;;;6.19;67.45;98746.19;1761894;79;25404;-89
2021/03/14 07:19:30;;;;;;;4.95;2.65;;;;;;;6.22;67.67;98758.33;1760847;79;25344;-89
2021/03/14 07:22:10;;;;;;;5.95;2.55;;;;;;;6.28;67.55;98750.33;1753973;79;25361;-89
2021/03/14 07:24:42;;;;;;;7.72;3.05;;;;;;;6.33;67.42;98763.59;1712171;81;25819;-91
2021/03/14 07:27:11;;;;;;;7.67;2.72;;;;;;;6.40;66.52;98755.38;1750081;79;25316;-90
2021/03/14 07:29:39;;;;;;;6.92;2.85;;;;;;;6.45;66.90;98759.55;1743239;79;25779;-91
2021/03/14 07:32:08;;;;;;;8.65;3.22;;;;;;;6.48;66.62;98751.91;1741617;78;25872;-90
2021/03/14 07:34:35;;;;;;;6.37;2.83;;;;;;;6.53;66.06;98772.14;1748245;79;25567;-89
2021/03/14 07:37:02;;;;;;;4.28;2.42;;;;;;;6.58;66.39;98755.55;1748316;79;26019;-89
2021/03/14 07:39:29;;;;;;;5.85;2.75;;;;;;;6.63;64.99;98748.03;1751682;80;25712;-90
2021/03/14 07:41:55;;;;;;;6.75;2.92;;;;;;;6.71;65.84;98751.84;1751454;78;25500;-90
2021/03/14 07:44:24;;;;;;;5.80;3.27;;;;;;;6.81;65.42;98753.64;1750930;79;25335;-91
2021/03/14 07:46:53;;;;;;;12.10;3.17;;;;;;;6.90;65.20;98749.16;1750191;79;25297;-91
2021/03/14 07:49:23;;;;;;;6.97;2.45;;;;;;;7.01;64.79;98759.10;1749440;79;25781;-90
2021/03/14 07:52:01;;;;;;;10.50;2.85;;;;;;;7.08;63.08;98755.27;1751793;79;25619;-91
2021/03/14 07:54:44;;;;;;;4.40;2.12;;;;;;;7.10;63.22;98763.70;1742175;79;25301;-91
2021/03/14 07:57:12;;;;;;;6.55;2.60;;;;;;;7.16;62.83;98764.27;1735401;80;25338;-90
2021/03/14 07:59:42;;;;;;;4.87;2.70;;;;;;;7.22;63.33;98757.02;1751893;79;25285;-90
2021/03/14 08:02:25;;;;;;;7.28;3.00;;;;;;;7.34;63.40;98763.88;1753750;80;26550;-90
2021/03/14 08:04:57;;;;;;;4.75;2.60;;;;;;;7.42;62.83;98754.66;1743700;79;25293;-89
2021/03/14 08:07:38;;;;;;;4.92;2.40;;;;;;;7.45;61.78;98760.79;1748236;79;25379;-91
2021/03/14 08:10:08;;;;;;;6.20;3.02;;;;;;;7.50;62.64;98748.05;1751120;79;25897;-90
2021/03/14 08:12:39;;;;;;;6.67;2.50;;;;;;;7.60;61.54;98739.12;1736439;79;25967;-90
2021/03/14 08:15:28;;;;;;;6.33;2.65;;;;;;;7.65;60.78;98741.48;1729686;80;25647;-89
2021/03/14 08:17:58;;;;;;;6.13;2.57;;;;;;;7.71;61.69;98731.62;1727294;79;25430;-91
2021/03/14 08:20:44;;;;;;;6.30;3.37;;;;;;;7.84;59.96;98740.55;1745330;79;25462;-91
2021/03/14 08:23:19;;;;;;;5.67;2.47;;;;;;;7.77;58.32;98741.30;1726661;80;25293;-91
2021/03/14 08:25:49;;;;;;;6.00;2.40;;;;;;;7.73;58.79;98745.25;1751761;79;25326;-91
2021/03/14 08:28:33;;;;;;;4.55;2.33;;;;;;;7.82;59.67;98743.82;1757446;80;25881;-91
2021/03/14 08:31:04;;;;;;;6.75;2.72;;;;;;;7.88;60.42;98742.56;1745276;79;25494;-90
2021/03/14 08:33:43;;;;;;;7.17;2.62;;;;;;;7.97;59.63;98758.87;1754646;79;26360;-92
2021/03/14 08:36:26;;;;;;;6.20;2.65;;;;;;;7.94;57.88;98727.53;1735840;79;25367;-90
2021/03/14 08:38:54;;;;;;;8.33;2.87;;;;;;;8.00;58.37;98730.67;1747881;80;25416;-92
2021/03/14 08:41:36;;;;;;;8.23;3.27;;;;;;;8.01;57.47;98734.07;1752290;79;25939;-91
2021/03/14 08:44:14;;;;;;;6.78;2.80;;;;;;;8.00;58.61;98735.08;1754316;79;25369;-92
2021/03/14 08:46:56;;;;;;;6.42;2.98;;;;;;;8.04;58.71;98736.29;1662264;84;25425;-91
2021/03/14 08:49:24;;;;;;;6.62;3.25;;;;;;;8.11;58.84;98745.46;1665768;83;25820;-91
2021/03/14 08:51:52;;;;;;;5.55;2.60;;;;;;;8.16;57.41;98758.22;1669442;84;25599;-92
2021/03/14 08:54:38;;;;;;;6.22;3.10;;;;;;;8.20;57.41;98767.74;1659191;84;25733;-92
2021/03/14 08:57:12;;;;;;;6.92;2.77;;;;;;;8.22;56.77;98765.26;1658375;84;25768;-91
2021/03/14 08:59:56;;;;;;;6.20;3.10;;;;;;;8.28;56.58;98772.80;1665153;84;25406;-91
2021/03/14 09:02:30;;;;;;;6.30;2.87;;;;;;;8.31;56.02;98765.12;1632982;84;25998;-90
2021/03/14 09:05:17;;;;;;;6.45;2.30;;;;;;;8.35;55.12;98783.28;1654701;83;25964;-91
2021/03/14 09:07:58;;;;;;;6.35;2.58;;;;;;;8.42;55.32;98776.33;1646962;84;26220;-92
2021/03/14 09:10:25;;;;;;;6.67;2.27;;;;;;;8.47;54.38;98780.98;1656249;84;25439;-92
2021/03/14 09:13:03;;;;;;;5.67;2.05;;;;;;;8.43;53.42;98777.45;1654279;84;25526;-92
2021/03/14 09:15:34;;;;;;;4.50;1.95;;;;;;;8.37;52.62;98768.25;1654359;84;25429;-92
2021/03/14 09:18:11;;;;;;;4.90;1.90;;;;;;;8.37;53.19;98776.86;1616992;85;25508;-92
2021/03/14 09:20:38;;;;;;;7.83;2.42;;;;;;;8.47;53.08;98778.38;1616279;85;26584;-92
2021/03/14 09:23:07;;;;;;;7.78;2.70;;;;;;;8.58;52.77;98783.85;1588143;86;25524;-92
2021/03/14 09:25:51;;;;;;;5.22;1.90;;;;;;;8.73;52.37;98776.41;1646865;83;25414;-92
2021/03/14 09:28:18;;;;;;;3.75;1.80;;;;;;;8.82;51.74;98790.91;1676611;81;25672;-90
2021/03/14 09:30:47;;;;;;;6.55;3.22;;;;;;;8.84;51.86;98798.84;1704852;81;25477;-91
2021/03/14 09:33:13;;;;;;;7.70;3.30;;;;;;;8.84;51.97;98802.75;1695385;81;25680;-92
2021/03/14 09:35:42;;;;;;;6.03;2.50;;;;;;;8.95;52.70;98805.78;1697527;81;25505;-92
2021/03/14 09:38:17;;;;;;;4.97;2.05;;;;;;;9.04;51.23;98796.83;1690077;82;25488;-91
2021/03/14 09:40:53;;;;;;;6.00;2.37;;;;;;;9.16;51.69;98814.81;1672689;82;25540;-89
2021/03/14 09:43:40;;;;;;;4.78;2.10;;;;;;;9.19;51.80;98814.92;1633210;85;25839;-87
2021/03/14 09:46:12;;;;;;;7.25;2.40;;;;;;;9.18;50.89;98807.61;1624881;85;57278;-75
2021/03/14 09:48:57;;;;;;;6.58;2.10;;;;;;;9.15;51.08;98798.88;1633643;84;25980;-75
2021/03/14 09:51:24;;;;;;;3.27;1.90;;;;;;;9.07;50.29;98829.81;1616299;85;26740;-75
2021/03/14 09:53:51;;;;;;;4.50;2.00;;;;;;;8.99;48.79;98826.56;1613742;83;25820;-75
2021/03/14 09:56:19;;;;;;;5.50;2.20;;;;;;;8.92;49.86;98829.15;1676167;82;26004;-75
2021/03/14 09:59:03;;;;;;;7.20;2.98;;;;;;;8.91;50.28;98828.83;1730547;80;27671;-75
2021/03/14 10:01:32;;;;;;;6.05;2.15;;;;;;;8.89;51.21;98834.72;1715425;81;25683;-75
2021/03/14 10:03:59;;;;;;;12.80;3.27;;;;;;;8.85;50.58;98838.22;1718494;80;26073;-75
2021/03/14 10:06:27;;;;;;;6.72;2.77;;;;;;;8.82;50.73;98836.00;1726184;80;25778;-75
2021/03/14 10:08:55;;;;;;;4.95;2.15;;;;;;;8.83;51.29;98825.07;1729468;81;26638;-75
2021/03/14 10:11:22;;;;;;;5.85;2.55;;;;;;;8.79;51.44;98832.47;1734430;80;25892;-75
2021/03/14 10:13:54;;;;;;;6.35;2.37;;;;;;;8.76;51.69;98841.17;1722697;80;26485;-76
2021/03/14 10:16:21;;;;;;;9.33;2.77;;;;;;;8.71;51.37;98837.03;1731676;80;25901;-75
2021/03/14 10:18:50;;;;;;;11.38;2.15;;;;;;;8.71;51.77;98822.20;1732889;80;26515;-75
2021/03/14 10:21:26;;;;;;;5.20;2.30;;;;;;;8.73;51.86;98827.20;1715858;79;25964;-75
2021/03/14 10:24:19;;;;;;;4.47;2.45;;;;;;;8.76;51.71;98839.38;1729672;80;26327;-76
2021/03/14 10:26:56;;;;;;;6.35;2.72;;;;;;;8.76;52.04;98841.98;1753999;79;25850;-74
2021/03/14 10:29:34;;;;;;;5.25;2.45;;;;;;;8.75;52.07;98837.74;1741588;79;26679;-76
2021/03/14 10:32:06;;;;;;;7.28;3.02;;;;;;;8.75;52.25;98840.85;1748503;79;25718;-76
2021/03/14 10:34:34;;;;;;;7.37;3.47;;;;;;;8.76;52.85;98841.17;1747710;79;25683;-76
2021/03/14 10:37:01;;;;;;;7.17;2.72;;;;;;;8.77;52.51;98842.78;1742392;80;25960;-76
2021/03/14 10:39:30;;;;;;;8.30;3.45;;;;;;;8.72;52.81;98846.45;1721711;81;25847;-75
2021/03/14 10:42:01;;;;;;;6.05;2.75;;;;;;;8.69;53.48;98861.95;1726851;79;25635;-75
2021/03/14 10:44:32;;;;;;;9.23;3.65;;;;;;;8.68;53.57;98864.27;1719431;81;26008;-76
2021/03/14 10:47:01;;;;;;;6.58;2.90;;;;;;;8.69;53.96;98862.45;1729728;79;25768;-75
2021/03/14 10:49:33;;;;;;;8.30;2.92;;;;;;;8.68;54.59;98874.68;1745574;79;26175;-75
2021/03/14 10:52:01;;;;;;;6.35;3.00;;;;;;;8.68;54.94;98864.77;1731413;79;25755;-75
2021/03/14 10:54:38;;;;;;;5.60;2.75;;;;;;;8.70;54.83;98857.55;1726764;81;26475;-76
2021/03/14 10:57:15;;;;;;;5.00;2.60;;;;;;;8.63;53.71;98876.55;1757379;79;26309;-77
2021/03/14 10:59:44;;;;;;;6.92;2.70;;;;;;;8.58;53.66;98870.29;1736180;80;25918;-76
2021/03/14 11:02:24;;;;;;;8.43;3.12;;;;;;;8.55;53.44;98879.28;1742972;80;26853;-75
2021/03/14 11:04:58;;;;;;;5.97;2.52;;;;;;;8.63;53.62;98888.77;1715254;81;25776;-76
2021/03/14 11:07:32;;;;;;;5.55;2.62;;;;;;;8.73;53.06;98886.64;1747217;80;26157;-76
2021/03/14 11:10:15;;;;;;;6.65;2.80;;;;;;;8.91;53.15;98893.97;1746251;79;25808;-75
2021/03/14 11:12:50;;;;;;;9.13;2.92;;;;;;;9.06;51.85;98899.09;1749677;79;25789;-76
2021/03/14 11:15:33;;;;;;;5.70;2.92;;;;;;;9.10;52.14;98889.38;1740172;80;25908;-76
2021/03/14 11:18:04;;;;;;;4.75;2.25;;;;;;;9.34;53.02;98881.58;1751197;79;25737;-76
2021/03/14 11:20:47;;;;;;;7.95;3.17;;;;;;;9.50;51.40;98890.89;1723866;80;25410;-75
2021/03/14 11:23:15;;;;;;;5.03;2.33;;;;;;;9.33;52.86;98896.13;1757286;79;26723;-69
2021/03/14 11:25:42;;;;;;;5.40;2.80;;;;;;;9.23;53.15;98896.97;1745269;79;25318;-69
2021/03/14 11:28:09;;;;;;;5.67;3.33;;;;;;;9.05;53.84;98896.95;1715309;80;28321;-69
2021/03/14 11:30:37;;;;;;;7.20;2.85;;;;;;;8.94;54.19;98906.61;1697380;82;25840;-70
2021/03/14 11:33:05;;;;;;;4.60;3.05;;;;;;;8.85;54.63;98911.16;1707452;81;25716;-69
2021/03/14 11:35:34;;;;;;;5.70;2.85;;;;;;;8.71;54.49;98913.88;1739287;80;25791;-69
2021/03/14 11:38:05;;;;;;;6.83;3.45;;;;;;;8.54;54.74;98914.14;1661223;84;25983;-70
2021/03/14 11:40:33;;;;;;;7.72;3.58;;;;;;;8.40;55.24;98899.38;1661365;83;25916;-68
2021/03/14 11:43:04;;;;;;;6.15;3.10;;;;;;;8.27;55.16;98919.57;1647983;83;26911;-70
2021/03/14 11:45:32;;;;;;;5.50;2.80;;;;;;;8.17;55.55;98943.79;1658780;83;25938;-73
2021/03/14 11:47:59;;;;;;;4.90;2.22;;;;;;;8.08;55.11;98918.88;1663828;83;25346;-74
2021/03/14 11:50:40;;;;;;;6.10;2.98;;;;;;;8.05;55.63;98911.41;1618769;86;25885;-73
2021/03/14 11:53:08;;;;;;;6.08;2.40;;;;;;;8.05;55.56;98908.34;1608311;86;26545;-76
2021/03/14 11:55:36;;;;;;;5.60;2.70;;;;;;;8.05;55.27;98901.01;1605639;87;25926;-75
2021/03/14 11:58:03;;;;;;;5.78;3.20;;;;;;;8.11;55.32;98892.48;1598384;87;25938;-76